sensor_id;sensor_type;location;lat;lon;timestamp;temperature;humidity
20171;DHT22;10245;51.344;6.620;2023-08-20T00:00:10;19.10;90.90
20171;DHT22;10245;51.344;6.620;2023-08-20T00:02:36;19.10;90.80
20171;DHT22;10245;51.344;6.620;2023-08-20T00:05:01;19.10;90.90
20171;DHT22;10245;51.344;6.620;2023-08-20T00:07:26;19.10;91.00
20171;DHT22;10245;51.344;6.620;2023-08-20T00:09:51;19.20;90.90
20171;DHT22;10245;51.344;6.620;2023-08-20T00:12:14;19.20;90.80
20171;DHT22;10245;51.344;6.620;2023-08-20T00:14:55;19.10;90.70
20171;DHT22;10245;51.344;6.620;2023-08-20T00:17:21;19.10;90.90
20171;DHT22;10245;51.344;6.620;2023-08-20T00:19:47;19.00;91.10
20171;DHT22;10245;51.344;6.620;2023-08-20T00:22:12;19.00;91.20
20171;DHT22;10245;51.344;6.620;2023-08-20T00:24:36;18.90;91.20
20171;DHT22;10245;51.344;6.620;2023-08-20T00:27:01;19.00;91.10
20171;DHT22;10245;51.344;6.620;2023-08-20T00:29:24;18.90;91.10
20171;DHT22;10245;51.344;6.620;2023-08-20T00:31:47;18.90;91.00
20171;DHT22;10245;51.344;6.620;2023-08-20T00:34:10;18.90;91.10
20171;DHT22;10245;51.344;6.620;2023-08-20T00:36:34;18.90;91.20
20171;DHT22;10245;51.344;6.620;2023-08-20T00:38:57;18.80;91.20
20171;DHT22;10245;51.344;6.620;2023-08-20T00:41:20;18.80;91.20
20171;DHT22;10245;51.344;6.620;2023-08-20T00:43:45;18.80;91.30
20171;DHT22;10245;51.344;6.620;2023-08-20T00:46:09;18.80;91.30
20171;DHT22;10245;51.344;6.620;2023-08-20T00:48:32;18.80;91.20
20171;DHT22;10245;51.344;6.620;2023-08-20T00:50:55;18.80;91.30
20171;DHT22;10245;51.344;6.620;2023-08-20T00:53:19;18.80;91.20
20171;DHT22;10245;51.344;6.620;2023-08-20T00:55:43;18.70;91.20
20171;DHT22;10245;51.344;6.620;2023-08-20T00:58:06;18.60;91.20
20171;DHT22;10245;51.344;6.620;2023-08-20T01:00:31;18.60;91.40
20171;DHT22;10245;51.344;6.620;2023-08-20T01:02:54;18.70;91.30
20171;DHT22;10245;51.344;6.620;2023-08-20T01:05:18;18.80;91.40
20171;DHT22;10245;51.344;6.620;2023-08-20T01:07:55;18.70;91.30
20171;DHT22;10245;51.344;6.620;2023-08-20T01:10:26;18.70;91.40
20171;DHT22;10245;51.344;6.620;2023-08-20T01:12:58;18.70;91.40
20171;DHT22;10245;51.344;6.620;2023-08-20T01:15:23;18.60;91.40
20171;DHT22;10245;51.344;6.620;2023-08-20T01:17:48;18.60;91.60
20171;DHT22;10245;51.344;6.620;2023-08-20T01:20:12;18.70;91.50
20171;DHT22;10245;51.344;6.620;2023-08-20T01:26:21;18.80;91.60
20171;DHT22;10245;51.344;6.620;2023-08-20T01:28:54;18.80;91.60
20171;DHT22;10245;51.344;6.620;2023-08-20T01:31:18;18.70;91.40
20171;DHT22;10245;51.344;6.620;2023-08-20T01:33:42;18.70;91.40
20171;DHT22;10245;51.344;6.620;2023-08-20T01:36:08;18.70;91.20
20171;DHT22;10245;51.344;6.620;2023-08-20T01:38:32;18.70;91.20
20171;DHT22;10245;51.344;6.620;2023-08-20T01:40:58;18.60;91.30
20171;DHT22;10245;51.344;6.620;2023-08-20T01:43:21;18.50;91.60
20171;DHT22;10245;51.344;6.620;2023-08-20T01:45:46;18.30;92.30
20171;DHT22;10245;51.344;6.620;2023-08-20T01:48:10;18.30;92.60
20171;DHT22;10245;51.344;6.620;2023-08-20T01:50:34;18.30;92.70
20171;DHT22;10245;51.344;6.620;2023-08-20T01:52:58;18.40;92.90
20171;DHT22;10245;51.344;6.620;2023-08-20T01:55:21;18.50;92.70
20171;DHT22;10245;51.344;6.620;2023-08-20T01:57:45;18.60;92.50
20171;DHT22;10245;51.344;6.620;2023-08-20T02:00:09;18.50;92.50
20171;DHT22;10245;51.344;6.620;2023-08-20T02:02:37;18.50;92.50
20171;DHT22;10245;51.344;6.620;2023-08-20T02:05:00;18.50;92.20
20171;DHT22;10245;51.344;6.620;2023-08-20T02:07:24;18.50;92.30
20171;DHT22;10245;51.344;6.620;2023-08-20T02:09:48;18.50;92.10
20171;DHT22;10245;51.344;6.620;2023-08-20T02:12:11;18.50;92.30
20171;DHT22;10245;51.344;6.620;2023-08-20T02:14:35;18.60;92.00
20171;DHT22;10245;51.344;6.620;2023-08-20T02:16:58;18.50;92.10
20171;DHT22;10245;51.344;6.620;2023-08-20T02:19:23;18.60;92.00
20171;DHT22;10245;51.344;6.620;2023-08-20T02:21:47;18.50;92.10
20171;DHT22;10245;51.344;6.620;2023-08-20T02:24:10;18.50;92.30
20171;DHT22;10245;51.344;6.620;2023-08-20T02:26:34;18.60;92.30
20171;DHT22;10245;51.344;6.620;2023-08-20T02:28:57;18.60;92.10
20171;DHT22;10245;51.344;6.620;2023-08-20T02:31:20;18.60;92.10
20171;DHT22;10245;51.344;6.620;2023-08-20T02:33:44;18.70;91.70
20171;DHT22;10245;51.344;6.620;2023-08-20T02:36:09;18.80;91.70
20171;DHT22;10245;51.344;6.620;2023-08-20T02:38:33;18.60;91.40
20171;DHT22;10245;51.344;6.620;2023-08-20T02:40:57;18.60;91.70
20171;DHT22;10245;51.344;6.620;2023-08-20T02:43:20;18.60;91.50
20171;DHT22;10245;51.344;6.620;2023-08-20T02:45:43;18.60;91.70
20171;DHT22;10245;51.344;6.620;2023-08-20T02:48:07;18.50;91.60
20171;DHT22;10245;51.344;6.620;2023-08-20T02:50:30;18.50;91.40
20171;DHT22;10245;51.344;6.620;2023-08-20T02:52:55;18.60;91.50
20171;DHT22;10245;51.344;6.620;2023-08-20T02:55:18;18.60;91.20
20171;DHT22;10245;51.344;6.620;2023-08-20T02:57:41;18.60;91.10
20171;DHT22;10245;51.344;6.620;2023-08-20T03:00:06;18.30;91.80
20171;DHT22;10245;51.344;6.620;2023-08-20T03:02:33;18.30;92.30
20171;DHT22;10245;51.344;6.620;2023-08-20T03:04:56;18.20;92.40
20171;DHT22;10245;51.344;6.620;2023-08-20T03:07:19;18.20;92.70
20171;DHT22;10245;51.344;6.620;2023-08-20T03:09:44;18.10;92.80
20171;DHT22;10245;51.344;6.620;2023-08-20T03:12:08;18.20;92.80
20171;DHT22;10245;51.344;6.620;2023-08-20T03:14:31;18.10;92.90
20171;DHT22;10245;51.344;6.620;2023-08-20T03:16:54;18.20;92.90
20171;DHT22;10245;51.344;6.620;2023-08-20T03:19:18;18.30;93.00
20171;DHT22;10245;51.344;6.620;2023-08-20T03:21:41;18.20;92.70
20171;DHT22;10245;51.344;6.620;2023-08-20T03:24:05;18.30;92.80
20171;DHT22;10245;51.344;6.620;2023-08-20T03:26:31;18.40;92.60
20171;DHT22;10245;51.344;6.620;2023-08-20T03:28:54;18.40;92.00
20171;DHT22;10245;51.344;6.620;2023-08-20T03:31:18;18.40;91.90
20171;DHT22;10245;51.344;6.620;2023-08-20T03:33:41;18.40;91.90
20171;DHT22;10245;51.344;6.620;2023-08-20T03:36:05;18.30;92.00
20171;DHT22;10245;51.344;6.620;2023-08-20T03:38:28;18.30;91.90
20171;DHT22;10245;51.344;6.620;2023-08-20T03:40:51;18.30;92.20
20171;DHT22;10245;51.344;6.620;2023-08-20T03:43:16;18.30;92.00
20171;DHT22;10245;51.344;6.620;2023-08-20T03:45:39;18.20;92.10
20171;DHT22;10245;51.344;6.620;2023-08-20T03:48:03;18.10;92.40
20171;DHT22;10245;51.344;6.620;2023-08-20T03:50:27;18.20;92.50
20171;DHT22;10245;51.344;6.620;2023-08-20T03:52:50;18.30;92.30
20171;DHT22;10245;51.344;6.620;2023-08-20T03:55:14;18.10;92.10
20171;DHT22;10245;51.344;6.620;2023-08-20T03:57:37;18.00;92.60
20171;DHT22;10245;51.344;6.620;2023-08-20T04:00:03;18.10;92.80
20171;DHT22;10245;51.344;6.620;2023-08-20T04:02:35;18.20;92.70
20171;DHT22;10245;51.344;6.620;2023-08-20T04:04:59;18.20;92.20
20171;DHT22;10245;51.344;6.620;2023-08-20T04:07:22;18.00;92.50
20171;DHT22;10245;51.344;6.620;2023-08-20T04:09:45;18.10;92.70
20171;DHT22;10245;51.344;6.620;2023-08-20T04:12:08;18.00;92.60
20171;DHT22;10245;51.344;6.620;2023-08-20T04:14:32;18.10;92.60
20171;DHT22;10245;51.344;6.620;2023-08-20T04:16:57;18.10;92.40
20171;DHT22;10245;51.344;6.620;2023-08-20T04:19:20;18.20;92.30
20171;DHT22;10245;51.344;6.620;2023-08-20T04:21:43;18.20;92.10
20171;DHT22;10245;51.344;6.620;2023-08-20T04:24:07;18.00;91.90
20171;DHT22;10245;51.344;6.620;2023-08-20T04:26:30;18.00;92.50
20171;DHT22;10245;51.344;6.620;2023-08-20T04:28:54;17.90;92.90
20171;DHT22;10245;51.344;6.620;2023-08-20T04:31:17;18.00;92.90
20171;DHT22;10245;51.344;6.620;2023-08-20T04:33:49;18.10;92.70
20171;DHT22;10245;51.344;6.620;2023-08-20T04:36:16;18.00;92.50
20171;DHT22;10245;51.344;6.620;2023-08-20T04:38:39;18.10;92.10
20171;DHT22;10245;51.344;6.620;2023-08-20T04:41:03;18.00;92.30
20171;DHT22;10245;51.344;6.620;2023-08-20T04:43:26;17.80;92.80
20171;DHT22;10245;51.344;6.620;2023-08-20T04:45:50;17.80;93.10
20171;DHT22;10245;51.344;6.620;2023-08-20T04:48:15;18.00;93.10
20171;DHT22;10245;51.344;6.620;2023-08-20T04:50:40;18.00;92.70
20171;DHT22;10245;51.344;6.620;2023-08-20T04:53:04;17.90;93.00
20171;DHT22;10245;51.344;6.620;2023-08-20T04:55:27;17.90;93.30
20171;DHT22;10245;51.344;6.620;2023-08-20T04:57:51;18.00;93.20
20171;DHT22;10245;51.344;6.620;2023-08-20T05:00:15;18.00;92.90
20171;DHT22;10245;51.344;6.620;2023-08-20T05:02:43;18.10;92.70
20171;DHT22;10245;51.344;6.620;2023-08-20T05:05:10;18.10;92.60
20171;DHT22;10245;51.344;6.620;2023-08-20T05:07:35;18.10;92.40
20171;DHT22;10245;51.344;6.620;2023-08-20T05:09:59;18.20;92.50
20171;DHT22;10245;51.344;6.620;2023-08-20T05:12:22;18.20;92.20
20171;DHT22;10245;51.344;6.620;2023-08-20T05:14:45;18.20;92.10
20171;DHT22;10245;51.344;6.620;2023-08-20T05:17:09;18.10;92.30
20171;DHT22;10245;51.344;6.620;2023-08-20T05:19:32;18.10;92.30
20171;DHT22;10245;51.344;6.620;2023-08-20T05:21:55;18.10;92.30
20171;DHT22;10245;51.344;6.620;2023-08-20T05:24:25;18.20;92.40
20171;DHT22;10245;51.344;6.620;2023-08-20T05:27:04;18.10;92.10
20171;DHT22;10245;51.344;6.620;2023-08-20T05:29:28;18.10;92.50
20171;DHT22;10245;51.344;6.620;2023-08-20T05:31:51;18.20;92.80
20171;DHT22;10245;51.344;6.620;2023-08-20T05:34:15;18.20;92.70
20171;DHT22;10245;51.344;6.620;2023-08-20T05:36:38;18.40;92.50
20171;DHT22;10245;51.344;6.620;2023-08-20T05:39:04;18.30;92.20
20171;DHT22;10245;51.344;6.620;2023-08-20T05:41:28;18.30;92.30
20171;DHT22;10245;51.344;6.620;2023-08-20T05:43:52;18.50;92.50
20171;DHT22;10245;51.344;6.620;2023-08-20T05:46:15;18.60;92.40
20171;DHT22;10245;51.344;6.620;2023-08-20T05:48:38;18.80;91.60
20171;DHT22;10245;51.344;6.620;2023-08-20T05:51:02;18.60;91.50
20171;DHT22;10245;51.344;6.620;2023-08-20T05:53:25;18.80;91.70
20171;DHT22;10245;51.344;6.620;2023-08-20T05:55:49;18.60;91.80
20171;DHT22;10245;51.344;6.620;2023-08-20T05:58:13;18.70;92.10
20171;DHT22;10245;51.344;6.620;2023-08-20T06:00:37;18.80;92.20
20171;DHT22;10245;51.344;6.620;2023-08-20T06:03:00;19.00;91.80
20171;DHT22;10245;51.344;6.620;2023-08-20T06:05:23;19.00;91.70
20171;DHT22;10245;51.344;6.620;2023-08-20T06:07:47;19.00;91.10
20171;DHT22;10245;51.344;6.620;2023-08-20T06:10:10;19.00;91.60
20171;DHT22;10245;51.344;6.620;2023-08-20T06:12:33;19.10;91.70
20171;DHT22;10245;51.344;6.620;2023-08-20T06:14:59;19.30;91.30
20171;DHT22;10245;51.344;6.620;2023-08-20T06:17:22;19.30;91.10
20171;DHT22;10245;51.344;6.620;2023-08-20T06:19:45;19.40;90.90
20171;DHT22;10245;51.344;6.620;2023-08-20T06:22:08;19.60;90.60
20171;DHT22;10245;51.344;6.620;2023-08-20T06:24:32;19.50;90.30
20171;DHT22;10245;51.344;6.620;2023-08-20T06:26:55;19.50;90.60
20171;DHT22;10245;51.344;6.620;2023-08-20T06:29:18;19.50;91.00
20171;DHT22;10245;51.344;6.620;2023-08-20T06:31:44;19.50;90.80
20171;DHT22;10245;51.344;6.620;2023-08-20T06:34:08;19.70;90.70
20171;DHT22;10245;51.344;6.620;2023-08-20T06:36:31;19.80;90.60
20171;DHT22;10245;51.344;6.620;2023-08-20T06:38:54;20.00;89.90
20171;DHT22;10245;51.344;6.620;2023-08-20T06:41:18;20.10;89.60
20171;DHT22;10245;51.344;6.620;2023-08-20T06:43:41;20.00;89.30
20171;DHT22;10245;51.344;6.620;2023-08-20T06:46:04;20.10;89.50
20171;DHT22;10245;51.344;6.620;2023-08-20T06:48:29;20.40;89.00
20171;DHT22;10245;51.344;6.620;2023-08-20T06:50:53;20.50;88.80
20171;DHT22;10245;51.344;6.620;2023-08-20T06:53:16;20.80;88.20
20171;DHT22;10245;51.344;6.620;2023-08-20T06:55:39;21.00;87.90
20171;DHT22;10245;51.344;6.620;2023-08-20T06:58:02;20.80;88.20
20171;DHT22;10245;51.344;6.620;2023-08-20T07:00:26;20.90;88.50
20171;DHT22;10245;51.344;6.620;2023-08-20T07:02:49;21.00;87.90
20171;DHT22;10245;51.344;6.620;2023-08-20T07:05:14;21.10;87.60
20171;DHT22;10245;51.344;6.620;2023-08-20T07:07:38;21.10;87.10
20171;DHT22;10245;51.344;6.620;2023-08-20T07:10:02;21.00;87.40
20171;DHT22;10245;51.344;6.620;2023-08-20T07:12:27;21.10;88.30
20171;DHT22;10245;51.344;6.620;2023-08-20T07:14:51;21.40;87.90
20171;DHT22;10245;51.344;6.620;2023-08-20T07:17:14;22.00;87.70
20171;DHT22;10245;51.344;6.620;2023-08-20T07:19:38;22.40;85.50
20171;DHT22;10245;51.344;6.620;2023-08-20T07:22:02;22.30;84.40
20171;DHT22;10245;51.344;6.620;2023-08-20T07:24:26;22.30;85.70
20171;DHT22;10245;51.344;6.620;2023-08-20T07:26:51;22.30;85.00
20171;DHT22;10245;51.344;6.620;2023-08-20T07:29:14;22.10;83.50
20171;DHT22;10245;51.344;6.620;2023-08-20T07:31:36;22.10;84.50
20171;DHT22;10245;51.344;6.620;2023-08-20T07:34:01;22.80;84.50
20171;DHT22;10245;51.344;6.620;2023-08-20T07:36:27;23.60;81.70
20171;DHT22;10245;51.344;6.620;2023-08-20T07:38:52;23.30;81.30
20171;DHT22;10245;51.344;6.620;2023-08-20T07:41:16;23.30;80.10
20171;DHT22;10245;51.344;6.620;2023-08-20T07:43:41;23.00;82.50
20171;DHT22;10245;51.344;6.620;2023-08-20T07:46:05;22.90;83.80
20171;DHT22;10245;51.344;6.620;2023-08-20T07:48:28;23.20;82.50
20171;DHT22;10245;51.344;6.620;2023-08-20T07:50:52;22.90;83.00
20171;DHT22;10245;51.344;6.620;2023-08-20T07:53:15;22.80;83.80
20171;DHT22;10245;51.344;6.620;2023-08-20T07:55:39;22.90;82.80
20171;DHT22;10245;51.344;6.620;2023-08-20T07:58:06;23.30;82.60
20171;DHT22;10245;51.344;6.620;2023-08-20T08:00:30;23.70;82.10
20171;DHT22;10245;51.344;6.620;2023-08-20T08:02:53;23.20;81.90
20171;DHT22;10245;51.344;6.620;2023-08-20T08:05:16;23.50;83.40
20171;DHT22;10245;51.344;6.620;2023-08-20T08:07:40;23.70;82.10
20171;DHT22;10245;51.344;6.620;2023-08-20T08:10:04;23.60;81.50
20171;DHT22;10245;51.344;6.620;2023-08-20T08:12:29;23.80;81.90
20171;DHT22;10245;51.344;6.620;2023-08-20T08:14:52;23.70;81.80
20171;DHT22;10245;51.344;6.620;2023-08-20T08:17:15;23.90;80.00
20171;DHT22;10245;51.344;6.620;2023-08-20T08:19:39;23.80;81.20
20171;DHT22;10245;51.344;6.620;2023-08-20T08:22:02;23.90;81.20
20171;DHT22;10245;51.344;6.620;2023-08-20T08:24:25;24.00;81.70
20171;DHT22;10245;51.344;6.620;2023-08-20T08:26:48;25.40;78.20
20171;DHT22;10245;51.344;6.620;2023-08-20T08:29:13;25.70;79.00
20171;DHT22;10245;51.344;6.620;2023-08-20T08:31:36;25.80;78.70
20171;DHT22;10245;51.344;6.620;2023-08-20T08:34:00;24.40;77.10
20171;DHT22;10245;51.344;6.620;2023-08-20T08:36:25;24.20;78.80
20171;DHT22;10245;51.344;6.620;2023-08-20T08:38:48;24.60;77.20
20171;DHT22;10245;51.344;6.620;2023-08-20T08:41:12;24.80;76.90
20171;DHT22;10245;51.344;6.620;2023-08-20T08:43:37;24.30;78.50
20171;DHT22;10245;51.344;6.620;2023-08-20T08:46:04;24.50;80.40
20171;DHT22;10245;51.344;6.620;2023-08-20T08:48:29;25.20;81.50
20171;DHT22;10245;51.344;6.620;2023-08-20T08:50:53;25.20;76.50
20171;DHT22;10245;51.344;6.620;2023-08-20T08:53:16;25.00;77.20
20171;DHT22;10245;51.344;6.620;2023-08-20T08:55:40;24.80;78.50
20171;DHT22;10245;51.344;6.620;2023-08-20T08:58:04;24.80;79.40
20171;DHT22;10245;51.344;6.620;2023-08-20T09:00:28;24.60;78.20
20171;DHT22;10245;51.344;6.620;2023-08-20T09:02:54;24.50;78.40
20171;DHT22;10245;51.344;6.620;2023-08-20T09:05:17;24.40;78.10
20171;DHT22;10245;51.344;6.620;2023-08-20T09:07:42;24.50;77.90
20171;DHT22;10245;51.344;6.620;2023-08-20T09:10:07;24.60;79.50
20171;DHT22;10245;51.344;6.620;2023-08-20T09:12:34;24.70;79.10
20171;DHT22;10245;51.344;6.620;2023-08-20T09:14:57;24.70;80.90
20171;DHT22;10245;51.344;6.620;2023-08-20T09:17:25;24.70;80.20
20171;DHT22;10245;51.344;6.620;2023-08-20T09:19:50;24.60;77.80
20171;DHT22;10245;51.344;6.620;2023-08-20T09:22:13;24.80;79.30
20171;DHT22;10245;51.344;6.620;2023-08-20T09:24:40;24.60;76.40
20171;DHT22;10245;51.344;6.620;2023-08-20T09:27:05;24.60;78.90
20171;DHT22;10245;51.344;6.620;2023-08-20T09:29:31;24.80;78.90
20171;DHT22;10245;51.344;6.620;2023-08-20T09:32:00;24.70;78.70
20171;DHT22;10245;51.344;6.620;2023-08-20T09:34:24;24.80;81.60
20171;DHT22;10245;51.344;6.620;2023-08-20T09:36:49;24.80;78.20
20171;DHT22;10245;51.344;6.620;2023-08-20T09:39:12;25.00;76.90
20171;DHT22;10245;51.344;6.620;2023-08-20T09:41:36;25.10;76.80
20171;DHT22;10245;51.344;6.620;2023-08-20T09:44:02;25.20;76.40
20171;DHT22;10245;51.344;6.620;2023-08-20T09:46:31;25.60;76.30
20171;DHT22;10245;51.344;6.620;2023-08-20T09:48:56;25.60;77.00
20171;DHT22;10245;51.344;6.620;2023-08-20T09:51:24;25.20;75.80
20171;DHT22;10245;51.344;6.620;2023-08-20T09:53:55;24.80;77.10
20171;DHT22;10245;51.344;6.620;2023-08-20T09:56:27;24.80;79.50
20171;DHT22;10245;51.344;6.620;2023-08-20T09:58:52;25.10;77.00
20171;DHT22;10245;51.344;6.620;2023-08-20T10:01:17;25.40;76.80
20171;DHT22;10245;51.344;6.620;2023-08-20T10:03:41;25.50;75.90
20171;DHT22;10245;51.344;6.620;2023-08-20T10:06:06;25.30;74.20
20171;DHT22;10245;51.344;6.620;2023-08-20T10:08:29;25.40;73.50
20171;DHT22;10245;51.344;6.620;2023-08-20T10:10:54;25.60;73.60
20171;DHT22;10245;51.344;6.620;2023-08-20T10:13:17;26.00;73.90
20171;DHT22;10245;51.344;6.620;2023-08-20T10:15:41;25.70;73.50
20171;DHT22;10245;51.344;6.620;2023-08-20T10:18:07;25.60;71.20
20171;DHT22;10245;51.344;6.620;2023-08-20T10:20:31;25.60;74.70
20171;DHT22;10245;51.344;6.620;2023-08-20T10:23:00;25.90;73.50
20171;DHT22;10245;51.344;6.620;2023-08-20T10:25:25;26.00;72.40
20171;DHT22;10245;51.344;6.620;2023-08-20T10:27:51;26.60;69.90
20171;DHT22;10245;51.344;6.620;2023-08-20T10:30:17;26.30;70.50
20171;DHT22;10245;51.344;6.620;2023-08-20T10:32:48;25.80;67.60
20171;DHT22;10245;51.344;6.620;2023-08-20T10:35:12;26.20;68.80
20171;DHT22;10245;51.344;6.620;2023-08-20T10:37:35;26.50;70.20
20171;DHT22;10245;51.344;6.620;2023-08-20T10:39:59;26.70;68.30
20171;DHT22;10245;51.344;6.620;2023-08-20T10:42:24;26.50;67.00
20171;DHT22;10245;51.344;6.620;2023-08-20T10:45:00;26.30;69.00
20171;DHT22;10245;51.344;6.620;2023-08-20T10:47:25;25.90;69.00
20171;DHT22;10245;51.344;6.620;2023-08-20T10:49:50;25.50;70.30
20171;DHT22;10245;51.344;6.620;2023-08-20T10:52:14;25.60;71.80
20171;DHT22;10245;51.344;6.620;2023-08-20T10:54:38;25.60;71.70
20171;DHT22;10245;51.344;6.620;2023-08-20T10:57:01;25.30;71.60
20171;DHT22;10245;51.344;6.620;2023-08-20T10:59:26;25.50;70.30
20171;DHT22;10245;51.344;6.620;2023-08-20T11:01:53;25.90;66.70
20171;DHT22;10245;51.344;6.620;2023-08-20T11:04:19;26.10;68.50
20171;DHT22;10245;51.344;6.620;2023-08-20T11:06:44;26.50;65.70
20171;DHT22;10245;51.344;6.620;2023-08-20T11:09:07;26.50;67.40
20171;DHT22;10245;51.344;6.620;2023-08-20T11:11:32;26.50;66.10
20171;DHT22;10245;51.344;6.620;2023-08-20T11:13:56;26.70;70.70
20171;DHT22;10245;51.344;6.620;2023-08-20T11:16:19;27.00;68.50
20171;DHT22;10245;51.344;6.620;2023-08-20T11:18:44;26.60;67.20
20171;DHT22;10245;51.344;6.620;2023-08-20T11:21:07;26.00;67.30
20171;DHT22;10245;51.344;6.620;2023-08-20T11:23:31;26.00;68.60
20171;DHT22;10245;51.344;6.620;2023-08-20T11:25:56;26.00;68.70
20171;DHT22;10245;51.344;6.620;2023-08-20T11:28:19;25.70;69.40
20171;DHT22;10245;51.344;6.620;2023-08-20T11:30:43;25.80;69.10
20171;DHT22;10245;51.344;6.620;2023-08-20T11:33:07;26.00;68.50
20171;DHT22;10245;51.344;6.620;2023-08-20T11:35:32;25.80;68.60
20171;DHT22;10245;51.344;6.620;2023-08-20T11:37:55;25.80;71.00
20171;DHT22;10245;51.344;6.620;2023-08-20T11:40:20;25.60;69.50
20171;DHT22;10245;51.344;6.620;2023-08-20T11:42:44;26.00;68.70
20171;DHT22;10245;51.344;6.620;2023-08-20T11:45:10;26.30;69.70
20171;DHT22;10245;51.344;6.620;2023-08-20T11:47:38;26.30;66.80
20171;DHT22;10245;51.344;6.620;2023-08-20T11:50:03;26.30;67.10
20171;DHT22;10245;51.344;6.620;2023-08-20T11:52:30;26.50;64.10
20171;DHT22;10245;51.344;6.620;2023-08-20T11:54:56;26.90;66.40
20171;DHT22;10245;51.344;6.620;2023-08-20T11:57:21;26.60;67.90
20171;DHT22;10245;51.344;6.620;2023-08-20T11:59:45;26.60;66.30
20171;DHT22;10245;51.344;6.620;2023-08-20T12:02:08;26.90;63.70
20171;DHT22;10245;51.344;6.620;2023-08-20T12:07:09;27.40;63.60
20171;DHT22;10245;51.344;6.620;2023-08-20T12:09:37;27.60;65.40
20171;DHT22;10245;51.344;6.620;2023-08-20T12:12:02;27.50;69.20
20171;DHT22;10245;51.344;6.620;2023-08-20T12:14:28;27.40;66.10
20171;DHT22;10245;51.344;6.620;2023-08-20T12:16:53;26.60;66.30
20171;DHT22;10245;51.344;6.620;2023-08-20T12:19:17;26.30;67.70
20171;DHT22;10245;51.344;6.620;2023-08-20T12:21:40;26.20;68.40
20171;DHT22;10245;51.344;6.620;2023-08-20T12:24:06;26.00;68.50
20171;DHT22;10245;51.344;6.620;2023-08-20T12:26:31;26.50;70.30
20171;DHT22;10245;51.344;6.620;2023-08-20T12:28:54;27.00;69.90
20171;DHT22;10245;51.344;6.620;2023-08-20T12:31:18;26.90;69.60
20171;DHT22;10245;51.344;6.620;2023-08-20T12:33:41;26.80;68.30
20171;DHT22;10245;51.344;6.620;2023-08-20T12:36:04;26.50;66.40
20171;DHT22;10245;51.344;6.620;2023-08-20T12:38:28;26.50;64.70
20171;DHT22;10245;51.344;6.620;2023-08-20T12:40:55;26.50;65.60
20171;DHT22;10245;51.344;6.620;2023-08-20T12:43:20;26.20;65.90
20171;DHT22;10245;51.344;6.620;2023-08-20T12:45:43;26.30;64.30
20171;DHT22;10245;51.344;6.620;2023-08-20T12:48:06;26.70;64.70
20171;DHT22;10245;51.344;6.620;2023-08-20T12:50:31;26.70;62.20
20171;DHT22;10245;51.344;6.620;2023-08-20T12:52:54;27.20;67.00
20171;DHT22;10245;51.344;6.620;2023-08-20T12:55:18;27.00;63.70
20171;DHT22;10245;51.344;6.620;2023-08-20T12:57:52;27.30;60.60
20171;DHT22;10245;51.344;6.620;2023-08-20T13:00:18;27.80;63.00
20171;DHT22;10245;51.344;6.620;2023-08-20T13:02:42;27.50;61.10
20171;DHT22;10245;51.344;6.620;2023-08-20T13:05:07;27.20;64.20
20171;DHT22;10245;51.344;6.620;2023-08-20T13:07:32;27.30;61.10
20171;DHT22;10245;51.344;6.620;2023-08-20T13:09:56;27.40;61.00
20171;DHT22;10245;51.344;6.620;2023-08-20T13:12:22;27.70;62.80
20171;DHT22;10245;51.344;6.620;2023-08-20T13:14:50;27.30;60.80
20171;DHT22;10245;51.344;6.620;2023-08-20T13:17:16;27.50;62.60
20171;DHT22;10245;51.344;6.620;2023-08-20T13:19:39;27.60;58.30
20171;DHT22;10245;51.344;6.620;2023-08-20T13:22:02;27.50;60.10
20171;DHT22;10245;51.344;6.620;2023-08-20T13:24:25;27.90;59.10
20171;DHT22;10245;51.344;6.620;2023-08-20T13:26:49;27.90;59.00
20171;DHT22;10245;51.344;6.620;2023-08-20T13:29:12;27.90;61.50
20171;DHT22;10245;51.344;6.620;2023-08-20T13:31:38;27.30;56.10
20171;DHT22;10245;51.344;6.620;2023-08-20T13:34:03;27.60;60.90
20171;DHT22;10245;51.344;6.620;2023-08-20T13:36:26;27.50;57.60
20171;DHT22;10245;51.344;6.620;2023-08-20T13:38:49;28.00;56.10
20171;DHT22;10245;51.344;6.620;2023-08-20T13:41:12;27.70;61.10
20171;DHT22;10245;51.344;6.620;2023-08-20T13:43:36;27.60;60.90
20171;DHT22;10245;51.344;6.620;2023-08-20T13:45:59;27.30;58.70
20171;DHT22;10245;51.344;6.620;2023-08-20T13:48:23;27.20;57.90
20171;DHT22;10245;51.344;6.620;2023-08-20T13:50:48;27.80;60.30
20171;DHT22;10245;51.344;6.620;2023-08-20T13:53:11;27.90;58.10
20171;DHT22;10245;51.344;6.620;2023-08-20T13:55:35;27.20;59.80
20171;DHT22;10245;51.344;6.620;2023-08-20T13:57:58;27.20;61.80
20171;DHT22;10245;51.344;6.620;2023-08-20T14:00:21;27.50;60.00
20171;DHT22;10245;51.344;6.620;2023-08-20T14:02:44;27.40;58.00
20171;DHT22;10245;51.344;6.620;2023-08-20T14:05:09;26.90;58.50
20171;DHT22;10245;51.344;6.620;2023-08-20T14:07:34;26.80;60.30
20171;DHT22;10245;51.344;6.620;2023-08-20T14:09:57;26.80;61.90
20171;DHT22;10245;51.344;6.620;2023-08-20T14:12:20;26.60;63.70
20171;DHT22;10245;51.344;6.620;2023-08-20T14:14:44;26.40;59.80
20171;DHT22;10245;51.344;6.620;2023-08-20T14:17:07;26.50;59.60
20171;DHT22;10245;51.344;6.620;2023-08-20T14:19:31;26.50;60.40
20171;DHT22;10245;51.344;6.620;2023-08-20T14:21:54;26.70;61.30
20171;DHT22;10245;51.344;6.620;2023-08-20T14:24:19;27.10;62.90
20171;DHT22;10245;51.344;6.620;2023-08-20T14:26:42;27.60;59.00
20171;DHT22;10245;51.344;6.620;2023-08-20T14:29:05;27.80;59.00
20171;DHT22;10245;51.344;6.620;2023-08-20T14:31:28;27.60;58.80
20171;DHT22;10245;51.344;6.620;2023-08-20T14:33:52;27.50;55.10
20171;DHT22;10245;51.344;6.620;2023-08-20T14:36:15;27.60;60.50
20171;DHT22;10245;51.344;6.620;2023-08-20T14:38:38;27.80;58.50
20171;DHT22;10245;51.344;6.620;2023-08-20T14:41:03;27.90;57.00
20171;DHT22;10245;51.344;6.620;2023-08-20T14:43:27;28.00;58.10
20171;DHT22;10245;51.344;6.620;2023-08-20T14:45:51;27.60;60.40
20171;DHT22;10245;51.344;6.620;2023-08-20T14:48:14;27.90;59.80
20171;DHT22;10245;51.344;6.620;2023-08-20T14:50:37;28.00;59.50
20171;DHT22;10245;51.344;6.620;2023-08-20T14:53:01;28.00;58.50
20171;DHT22;10245;51.344;6.620;2023-08-20T14:55:24;27.40;54.20
20171;DHT22;10245;51.344;6.620;2023-08-20T14:57:49;27.50;58.40
20171;DHT22;10245;51.344;6.620;2023-08-20T15:00:14;27.70;54.90
20171;DHT22;10245;51.344;6.620;2023-08-20T15:02:39;27.70;57.40
20171;DHT22;10245;51.344;6.620;2023-08-20T15:05:03;27.30;56.70
20171;DHT22;10245;51.344;6.620;2023-08-20T15:07:26;27.00;59.90
20171;DHT22;10245;51.344;6.620;2023-08-20T15:09:49;26.90;61.10
20171;DHT22;10245;51.344;6.620;2023-08-20T15:12:13;27.20;61.30
20171;DHT22;10245;51.344;6.620;2023-08-20T15:14:37;27.50;58.40
20171;DHT22;10245;51.344;6.620;2023-08-20T15:17:01;27.30;61.00